Time;durP1;ratioP1;P1;durP2;ratioP2;P2;SDS_P1;SDS_P2;PMS_P1;PMS_P2;Temp;Humidity;BMP_temperature;BMP_pressure;BME280_temperature;BME280_humidity;BME280_pressure;Samples;Min_cycle;Max_cycle;Signal;HPM_P1;HPM_P2
2022/04/04 00:01:53;;;;;;;9.82;6.60;;;-3276.70;73.80;;;-2.32;76.61;96332.13;4956005;28;20551;-64
2022/04/04 00:04:29;;;;;;;9.90;6.80;;;-3276.70;73.90;;;-2.32;76.24;96339.03;4932367;28;20817;-64
2022/04/04 00:06:55;;;;;;;9.48;6.70;;;-3276.70;74.10;;;-2.33;76.63;96334.81;4947299;28;20365;-64
2022/04/04 00:09:22;;;;;;;11.10;7.70;;;0.00;74.10;;;-2.36;76.56;96324.72;4922034;28;20334;-63
2022/04/04 00:11:48;;;;;;;8.85;6.78;;;-3276.70;74.10;;;-2.38;77.07;96326.59;4937401;28;20341;-64
2022/04/04 00:14:14;;;;;;;12.00;7.40;;;-3276.70;74.30;;;-2.38;77.34;96327.41;4944445;28;20344;-64
2022/04/04 00:16:40;;;;;;;10.30;6.75;;;-3276.70;74.30;;;-2.39;76.69;96324.94;4929802;28;20434;-64
2022/04/04 00:19:06;;;;;;;10.95;6.18;;;-3276.70;74.10;;;-2.41;77.34;96326.78;4952098;28;20471;-63
2022/04/04 00:21:32;;;;;;;9.15;6.57;;;-3276.70;74.40;;;-2.43;77.66;96323.50;4929490;28;20333;-64
2022/04/04 00:23:58;;;;;;;9.20;6.63;;;-3276.70;74.40;;;-2.45;77.53;96323.59;4963244;28;20347;-63
2022/04/04 00:26:25;;;;;;;9.50;6.57;;;-3276.60;74.20;;;-2.44;77.26;96316.69;4948698;28;20344;-64
2022/04/04 00:28:51;;;;;;;11.10;7.20;;;-3276.70;74.00;;;-2.46;77.42;96314.22;4948126;28;20317;-63
2022/04/04 00:31:17;;;;;;;8.93;6.78;;;-3276.70;74.20;;;-2.46;77.70;96314.22;4931327;28;20290;-63
2022/04/04 00:33:44;;;;;;;9.50;7.07;;;-3276.60;74.30;;;-2.47;77.37;96317.72;4929834;28;20402;-63
2022/04/04 00:36:10;;;;;;;10.75;6.90;;;-3276.60;74.30;;;-2.49;77.66;96310.13;4944766;28;20330;-63
2022/04/04 00:38:36;;;;;;;9.57;6.72;;;-3276.60;74.30;;;-2.50;77.38;96312.75;4954355;28;20368;-63
2022/04/04 00:41:11;;;;;;;9.93;6.53;;;-3276.60;74.30;;;-2.52;78.19;96312.03;4987711;28;20392;-63
2022/04/04 00:43:37;;;;;;;11.55;6.70;;;-3276.50;74.10;;;-2.54;77.99;96307.00;4942907;28;20346;-63
2022/04/04 00:46:04;;;;;;;10.65;6.90;;;-3276.50;74.10;;;-2.53;77.64;96306.06;4934118;28;20709;-63
2022/04/04 00:48:30;;;;;;;9.90;6.68;;;-3276.60;74.10;;;-2.54;77.81;96312.16;4944701;28;20911;-63
2022/04/04 00:50:56;;;;;;;11.13;6.55;;;-3276.60;74.30;;;-2.55;77.50;96304.53;4932505;28;20422;-63
2022/04/04 00:53:22;;;;;;;9.15;6.70;;;-3276.50;74.40;;;-2.58;77.77;96304.75;4947243;28;20204;-62
2022/04/04 00:55:48;;;;;;;10.20;6.88;;;-3276.50;74.10;;;-2.57;77.57;96304.63;4958700;28;20218;-63
2022/04/04 00:58:15;;;;;;;10.32;7.03;;;-3276.50;74.10;;;-2.61;77.78;96298.06;4966396;28;20520;-62
2022/04/04 01:00:42;;;;;;;10.63;7.05;;;-3276.50;73.70;;;-2.59;77.33;96303.91;4949554;28;20319;-65
2022/04/04 01:03:08;;;;;;;9.65;6.75;;;-3276.50;73.80;;;-2.62;77.72;96296.41;4951958;28;20506;-63
2022/04/04 01:05:34;;;;;;;9.20;6.78;;;-3276.50;73.60;;;-2.62;77.38;96293.84;4933737;28;20415;-63
2022/04/04 01:08:01;;;;;;;9.40;6.68;;;-3276.50;73.50;;;-2.62;77.64;96293.84;4916411;28;20337;-65
2022/04/04 01:10:29;;;;;;;9.35;6.60;;;-3276.40;73.40;;;-2.63;77.27;96297.34;4925440;28;20569;-62
2022/04/04 01:12:55;;;;;;;11.07;7.22;;;-3276.40;73.70;;;-2.64;77.54;96294.88;4914000;28;20377;-63
2022/04/04 01:15:30;;;;;;;11.15;7.13;;;-3276.40;73.80;;;-2.66;77.85;96292.41;4923789;28;20383;-62
2022/04/04 01:17:56;;;;;;;10.18;7.22;;;-3276.40;73.80;;;-2.68;77.93;96299.41;4958140;28;20893;-62
2022/04/04 01:20:22;;;;;;;11.88;7.28;;;-3276.30;74.00;;;-2.71;77.58;96286.75;4917544;28;20393;-62
2022/04/04 01:22:48;;;;;;;11.27;6.10;;;-3276.40;73.90;;;-2.72;78.12;96286.81;4917144;28;20439;-62
2022/04/04 01:25:23;;;;;;;11.32;7.05;;;-3276.40;73.90;;;-2.74;78.23;96279.19;4924620;28;20924;-62
2022/04/04 01:27:50;;;;;;;9.43;7.10;;;-3276.30;74.00;;;-2.77;78.09;96275.09;4986629;28;20369;-63
2022/04/04 01:30:16;;;;;;;11.23;7.00;;;-3276.30;74.20;;;-2.78;77.77;96273.44;4951985;28;20491;-62
2022/04/04 01:32:42;;;;;;;10.43;7.10;;;-3276.30;74.20;;;-2.78;77.81;96272.59;4940464;28;20489;-63
2022/04/04 01:35:09;;;;;;;11.40;7.18;;;-3276.30;74.00;;;-2.80;78.18;96269.31;4944977;28;20784;-62
2022/04/04 01:37:36;;;;;;;10.48;6.60;;;-3276.30;74.10;;;-2.82;77.81;96271.19;4947341;28;20875;-63
2022/04/04 01:40:06;;;;;;;10.90;6.75;;;-3276.30;74.30;;;-2.85;78.50;96261.09;4940844;28;20397;-63
2022/04/04 01:42:34;;;;;;;13.67;7.27;;;-3276.20;74.40;;;-2.87;78.61;96266.34;4939208;28;20627;-62
2022/04/04 01:45:00;;;;;;;11.73;7.05;;;-3276.20;74.60;;;-2.88;78.62;96261.28;4930315;28;20582;-62
2022/04/04 01:47:26;;;;;;;10.40;7.10;;;-3276.10;74.70;;;-2.90;78.63;96263.16;4963615;28;20334;-62
2022/04/04 01:49:52;;;;;;;9.43;6.70;;;-3276.20;74.70;;;-2.91;78.45;96270.06;4936606;28;20348;-62
2022/04/04 01:52:19;;;;;;;14.25;7.65;;;-3276.10;74.70;;;-2.93;78.40;96271.09;4960253;28;20494;-64
2022/04/04 01:54:45;;;;;;;11.55;7.53;;;-3276.10;74.80;;;-2.96;78.33;96260.97;4954307;28;20787;-63
2022/04/04 01:57:11;;;;;;;10.43;7.05;;;-3276.10;74.80;;;-2.98;78.66;96261.06;4919753;28;20317;-64
2022/04/04 01:59:37;;;;;;;10.05;7.47;;;-3276.10;74.80;;;-3.02;78.78;96253.66;4930327;28;20438;-63
2022/04/04 02:02:04;;;;;;;10.80;7.38;;;-3276.10;74.90;;;-2.99;78.97;96248.31;4981310;28;20361;-63
2022/04/04 02:04:30;;;;;;;10.90;7.07;;;-3276.10;74.80;;;-3.02;78.88;96257.06;4931274;28;20337;-63
2022/04/04 02:06:56;;;;;;;10.30;7.07;;;-3276.00;74.40;;;-3.08;78.77;96252.34;4938397;28;20441;-64
2022/04/04 02:09:22;;;;;;;9.25;6.75;;;-3276.00;74.40;;;-3.09;78.63;96254.09;4915688;28;20316;-64
2022/04/04 02:11:48;;;;;;;11.20;7.60;;;-3276.00;74.50;;;-3.10;78.61;96247.28;4949110;28;20364;-63
2022/04/04 02:14:15;;;;;;;11.32;7.13;;;-3276.00;74.30;;;-3.14;78.70;96253.56;4957748;28;20761;-64
2022/04/04 02:16:42;;;;;;;10.05;7.28;;;-3276.00;74.20;;;-3.15;78.63;96240.81;4955595;28;20380;-64
2022/04/04 02:19:09;;;;;;;16.10;10.60;;;-3276.00;74.50;;;-3.16;78.43;96242.56;4940557;28;20924;-63
2022/04/04 02:21:36;;;;;;;79.40;48.35;;;-3276.00;74.80;;;-3.16;79.26;96252.84;4945913;28;20360;-64
2022/04/04 02:24:04;;;;;;;54.13;31.88;;;-3276.00;74.80;;;-3.17;79.21;96248.63;4945529;28;20725;-63
2022/04/04 02:26:30;;;;;;;14.63;10.07;;;-3276.00;75.00;;;-3.19;78.96;96247.88;4917369;28;20614;-63
2022/04/04 02:28:56;;;;;;;10.63;7.95;;;-3275.90;75.00;;;-3.20;79.28;96247.97;4941205;28;20389;-63
2022/04/04 02:31:22;;;;;;;11.65;8.70;;;-3275.90;75.20;;;-3.22;79.20;96242.94;4926315;28;20356;-63
2022/04/04 02:33:48;;;;;;;14.43;9.60;;;-3275.90;75.00;;;-3.23;78.98;96246.44;4928087;28;20268;-63
2022/04/04 02:36:14;;;;;;;69.20;38.97;;;-3275.90;75.20;;;-3.25;79.45;96245.72;4934828;28;20840;-64
2022/04/04 02:38:41;;;;;;;89.00;51.15;;;-3275.90;75.50;;;-3.26;79.39;96238.94;4946973;28;20510;-63
2022/04/04 02:41:08;;;;;;;33.25;20.88;;;-3275.80;75.30;;;-3.27;79.33;96231.31;4944883;28;20488;-63
2022/04/04 02:43:34;;;;;;;20.17;12.07;;;-3275.90;75.00;;;-3.29;79.35;96228.84;4928092;28;20404;-63
2022/04/04 02:46:00;;;;;;;14.25;9.70;;;-3275.80;75.10;;;-3.32;79.15;96226.47;4941639;28;20348;-63
2022/04/04 02:48:26;;;;;;;13.95;9.35;;;-3275.80;75.20;;;-3.33;79.31;96227.41;4957628;28;20248;-64
2022/04/04 02:50:53;;;;;;;13.93;9.82;;;-3275.80;75.10;;;-3.35;79.20;96226.69;4923820;28;20438;-63
2022/04/04 02:53:19;;;;;;;13.68;9.32;;;-3275.70;75.30;;;-3.36;79.45;96232.75;4918700;28;20469;-63
2022/04/04 02:58:30;;;;;;;12.73;8.48;;;-3275.70;75.60;;;-3.39;79.32;96235.53;4965409;28;20783;-63
2022/04/04 03:00:56;;;;;;;12.75;7.95;;;-3275.70;75.50;;;-3.39;79.27;96235.53;4968307;28;20609;-63
2022/04/04 03:03:23;;;;;;;13.75;8.82;;;-3275.70;75.50;;;-3.41;79.58;96232.22;4934856;28;20752;-63
2022/04/04 03:05:50;;;;;;;11.93;8.05;;;-3275.70;75.30;;;-3.43;79.84;96227.16;4921137;28;20268;-63
2022/04/04 03:08:16;;;;;;;13.60;7.50;;;-3275.70;75.40;;;-3.43;79.35;96224.59;4945888;28;20322;-63
2022/04/04 03:10:42;;;;;;;22.92;13.57;;;-3275.70;75.40;;;-3.42;79.96;96225.41;4956483;28;20779;-63
2022/04/04 03:13:09;;;;;;;36.40;21.92;;;-3275.70;75.80;;;-3.40;80.60;96226.13;4949145;28;20430;-65
2022/04/04 03:15:35;;;;;;;22.60;14.52;;;-3275.80;76.10;;;-3.40;80.39;96215.84;4954619;27;20488;-64
2022/04/04 03:18:02;;;;;;;13.50;9.38;;;-3275.80;75.90;;;-3.37;80.73;96223.38;4943442;28;20318;-63
2022/04/04 03:20:30;;;;;;;12.05;8.05;;;-3275.80;75.70;;;-3.35;80.13;96226.69;4946412;28;20536;-63
2022/04/04 03:22:56;;;;;;;13.27;8.73;;;-3275.90;75.50;;;-3.32;80.32;96231.63;4954560;28;20691;-63
2022/04/04 03:25:23;;;;;;;16.08;11.23;;;-3276.00;75.90;;;-3.30;80.80;96214.34;4936057;28;20811;-63
2022/04/04 03:27:49;;;;;;;19.15;12.35;;;-3276.00;76.40;;;-3.26;81.02;96218.34;4912784;28;20282;-63
2022/04/04 03:30:23;;;;;;;15.55;10.93;;;-3276.00;76.60;;;-3.24;81.31;96211.34;4937585;28;20770;-63
2022/04/04 03:32:49;;;;;;;17.77;12.32;;;-3276.00;76.50;;;-3.19;81.58;96216.19;4937073;28;20803;-67
2022/04/04 03:35:17;;;;;;;16.42;11.23;;;-3276.10;76.50;;;-3.17;81.26;96212.63;4950553;28;20352;-66
2022/04/04 03:37:45;;;;;;;12.93;8.57;;;-3276.10;76.10;;;-3.15;81.03;96208.19;4942302;28;20666;-67
2022/04/04 03:40:13;;;;;;;12.93;8.43;;;-3276.00;75.50;;;-3.17;80.42;96204.91;4964924;28;20324;-68
2022/04/04 03:42:43;;;;;;;13.75;8.63;;;-3276.00;75.50;;;-3.17;80.54;96207.47;4995331;27;20696;-63
2022/04/04 03:45:11;;;;;;;12.73;8.27;;;-3276.00;75.30;;;-3.20;80.68;96207.66;4943479;28;20325;-64
2022/04/04 03:47:38;;;;;;;13.80;8.73;;;-3276.00;75.30;;;-3.25;80.81;96212.28;4943307;28;20552;-63
2022/04/04 03:50:06;;;;;;;12.40;8.40;;;-3275.90;75.50;;;-3.29;80.58;96215.97;4955744;28;20218;-63
2022/04/04 03:52:32;;;;;;;16.25;9.20;;;-3275.80;75.40;;;-3.33;80.03;96209.41;4937188;28;20407;-63
2022/04/04 03:54:58;;;;;;;14.80;8.77;;;-3275.80;75.50;;;-3.37;80.55;96217.44;4924096;28;20329;-64
2022/04/04 03:57:24;;;;;;;14.00;9.43;;;-3275.80;75.90;;;-3.43;80.96;96222.03;4915220;28;20372;-64
2022/04/04 03:59:51;;;;;;;11.40;8.38;;;-3275.70;76.00;;;-3.46;80.65;96216.25;4959203;27;20196;-63
2022/04/04 04:02:17;;;;;;;11.32;8.30;;;-3275.60;76.20;;;-3.51;80.68;96205.47;4947811;28;20361;-63
2022/04/04 04:04:44;;;;;;;14.27;8.98;;;-3275.60;76.40;;;-3.53;80.87;96217.59;4935017;28;20454;-63
2022/04/04 04:07:14;;;;;;;15.10;9.35;;;-3275.60;76.60;;;-3.56;81.14;96212.66;4939228;28;20475;-63
2022/04/04 04:09:40;;;;;;;12.52;9.10;;;-3275.60;76.70;;;-3.61;81.31;96218.09;4955495;27;20737;-63
2022/04/04 04:12:07;;;;;;;12.48;9.07;;;-3275.60;76.50;;;-3.64;80.98;96209.75;4983313;28;20035;-63
2022/04/04 04:14:33;;;;;;;16.35;10.32;;;-3275.50;76.50;;;-3.66;81.27;96212.41;4978889;28;20032;-63
2022/04/04 04:16:59;;;;;;;13.57;10.05;;;-3275.50;76.70;;;-3.71;81.30;96211.91;4973757;28;20555;-62
2022/04/04 04:22:10;;;;;;;14.43;9.68;;;-3275.40;76.90;;;-3.74;81.59;96220.63;4998550;28;20297;-63
2022/04/04 04:24:36;;;;;;;16.98;10.50;;;-3275.40;76.90;;;-3.82;81.42;96212.59;4973944;28;20370;-62
2022/04/04 04:27:02;;;;;;;16.05;10.07;;;-3275.40;76.90;;;-3.80;81.29;96215.06;5019698;28;20036;-64
2022/04/04 04:29:28;;;;;;;18.70;10.63;;;-3275.40;77.00;;;-3.82;81.59;96210.03;4998008;28;20481;-61
2022/04/04 04:31:54;;;;;;;17.45;11.18;;;-3275.30;76.90;;;-3.85;81.42;96206.81;5004131;28;20427;-61
2022/04/04 04:34:20;;;;;;;17.08;10.85;;;-3275.30;77.00;;;-3.88;81.53;96207.84;4970447;28;20319;-64
2022/04/04 04:36:46;;;;;;;20.00;12.15;;;-3275.30;76.90;;;-3.87;81.65;96213.78;4923847;28;20341;-62
2022/04/04 04:39:12;;;;;;;22.25;13.65;;;-3275.30;77.20;;;-3.88;81.85;96217.28;4929882;28;20212;-63
2022/04/04 04:41:39;;;;;;;26.40;16.02;;;-3275.30;77.40;;;-3.90;82.07;96209.69;4918487;28;20507;-60
2022/04/04 04:44:05;;;;;;;34.40;21.20;;;-3275.30;77.70;;;-3.90;82.36;96209.69;4914604;28;20461;-66
2022/04/04 04:46:33;;;;;;;25.23;15.18;;;-3275.30;78.10;;;-3.90;82.50;96208.84;4952718;28;20599;-66
2022/04/04 04:48:59;;;;;;;22.05;13.73;;;-3275.30;77.70;;;-3.90;81.84;96209.69;4950271;28;20536;-68
2022/04/04 04:51:26;;;;;;;18.90;11.75;;;-3275.30;77.50;;;-3.91;82.13;96213.16;4929894;28;20191;-66
2022/04/04 04:53:53;;;;;;;19.70;12.57;;;-3275.30;77.30;;;-3.92;82.15;96211.53;4957631;28;20736;-63
2022/04/04 04:56:19;;;;;;;18.33;12.20;;;-3275.30;77.30;;;-3.92;82.45;96215.84;4970186;28;20802;-63
2022/04/04 04:58:45;;;;;;;18.52;12.07;;;-3275.30;77.20;;;-3.94;81.92;96208.22;4933871;28;20231;-63
2022/04/04 05:01:11;;;;;;;18.55;11.85;;;-3275.30;77.30;;;-3.94;82.37;96210.78;4988753;28;20106;-67
2022/04/04 05:03:37;;;;;;;18.23;10.93;;;-3275.30;77.20;;;-3.97;82.20;96207.59;4965792;27;20701;-58
2022/04/04 05:06:03;;;;;;;15.73;11.02;;;-3275.30;77.40;;;-3.94;82.42;96202.25;4996888;28;20043;-59
2022/04/04 05:08:30;;;;;;;17.33;10.50;;;-3275.30;77.30;;;-3.95;82.72;96206.59;5016034;27;20093;-64
2022/04/04 05:10:57;;;;;;;15.75;10.60;;;-3275.30;77.50;;;-3.94;82.69;96204.84;5017891;27;20053;-62
2022/04/04 05:13:22;;;;;;;13.43;10.00;;;-3275.30;77.50;;;-3.94;82.41;96203.09;4975683;28;20032;-60
2022/04/04 05:15:49;;;;;;;15.85;10.45;;;-3275.30;77.60;;;-3.94;82.90;96203.09;4984363;28;20205;-63
2022/04/04 05:18:15;;;;;;;17.00;10.30;;;-3275.30;77.40;;;-3.95;82.51;96200.63;4965920;28;20241;-62
2022/04/04 05:20:41;;;;;;;14.73;10.48;;;-3275.40;77.40;;;-3.95;82.95;96203.19;4969931;28;20688;-63
2022/04/04 05:23:07;;;;;;;16.60;10.20;;;-3275.40;77.50;;;-3.88;83.06;96207.00;4980580;28;20032;-65
2022/04/04 05:25:33;;;;;;;14.30;10.02;;;-3275.40;77.60;;;-3.84;83.51;96208.47;4944157;28;20411;-64
2022/04/04 05:27:59;;;;;;;22.88;10.00;;;-3275.50;77.70;;;-3.82;82.88;96212.59;4960358;28;20364;-64
2022/04/04 05:30:25;;;;;;;15.93;9.55;;;-3275.50;77.40;;;-3.80;83.09;96209.94;4927350;28;20432;-63
2022/04/04 05:32:51;;;;;;;29.60;18.08;;;-3275.60;77.40;;;-3.75;83.21;96213.03;4901982;28;20365;-65
2022/04/04 05:35:19;;;;;;;29.52;19.13;;;-3275.70;78.00;;;-3.71;84.32;96210.16;4921826;28;20213;-63
2022/04/04 05:37:46;;;;;;;17.42;12.52;;;-3275.80;78.70;;;-3.58;84.57;96214.50;4946584;28;20349;-64
2022/04/04 05:40:12;;;;;;;16.27;10.73;;;-3276.00;78.00;;;-3.49;84.14;96222.44;4934365;28;20493;-66
2022/04/04 05:42:39;;;;;;;15.43;10.18;;;-3276.10;77.30;;;-3.42;84.16;96215.13;4948146;28;20378;-63
2022/04/04 05:45:09;;;;;;;14.73;10.55;;;-3276.10;76.80;;;-3.37;84.41;96209.72;4942839;28;20319;-66
2022/04/04 05:47:35;;;;;;;16.85;10.57;;;-3276.20;76.70;;;-3.26;84.19;96218.34;4913314;28;20357;-64
2022/04/04 05:50:01;;;;;;;15.85;10.18;;;-3276.40;76.40;;;-3.17;84.49;96215.19;4955347;28;20555;-67
2022/04/04 05:52:28;;;;;;;15.73;9.65;;;-3276.50;76.00;;;-3.06;84.19;96222.16;4952480;28;20631;-64
2022/04/04 05:54:54;;;;;;;13.88;9.40;;;-3276.60;75.10;;;-2.97;84.06;96228.44;4932309;28;20471;-66
2022/04/04 05:57:38;;;;;;;16.52;9.52;;;0.00;74.70;;;-2.84;84.10;96216.41;4961761;28;20645;-64
2022/04/04 06:00:10;;;;;;;13.05;9.38;;;0.10;74.40;;;-2.72;83.46;96225.84;4962481;28;20367;-65
2022/04/04 06:02:44;;;;;;;15.80;10.52;;;0.20;73.80;;;-2.61;83.98;96218.22;4944228;28;20567;-65
2022/04/04 06:05:11;;;;;;;17.13;11.30;;;0.40;73.30;;;-2.48;83.15;96224.19;4926535;28;20466;-64
2022/04/04 06:07:38;;;;;;;14.07;10.68;;;0.50;72.30;;;-2.35;83.27;96223.31;4944211;27;20343;-66
2022/04/04 06:10:06;;;;;;;14.40;9.93;;;0.70;72.10;;;-2.22;83.06;96229.28;4939876;28;20415;-64
2022/04/04 06:12:36;;;;;;;15.15;10.13;;;0.80;71.80;;;-2.09;83.07;96227.47;4943332;28;20311;-65
2022/04/04 06:15:03;;;;;;;12.38;8.65;;;1.00;71.60;;;-1.96;82.20;96220.53;4931889;28;20406;-65
2022/04/04 06:17:28;;;;;;;11.48;8.85;;;1.10;70.60;;;-1.83;82.11;96228.19;4930371;27;20419;-65
2022/04/04 06:19:58;;;;;;;21.52;9.27;;;1.30;70.30;;;-1.70;81.79;96225.56;4931042;28;20483;-64
2022/04/04 06:22:25;;;;;;;13.13;8.60;;;1.50;69.10;;;-1.56;81.57;96222.81;4952484;28;20295;-65
2022/04/04 06:24:51;;;;;;;13.38;8.55;;;1.60;68.70;;;-1.44;81.28;96226.25;4942729;28;20433;-66
2022/04/04 06:27:17;;;;;;;11.82;7.43;;;1.80;68.40;;;-1.29;81.01;96225.13;4954668;28;20078;-66
2022/04/04 06:29:45;;;;;;;11.80;8.02;;;2.00;67.10;;;-1.17;80.18;96218.22;4982662;27;20391;-64
2022/04/04 06:32:11;;;;;;;10.80;7.43;;;2.20;66.20;;;-1.07;79.34;96219.22;4959336;28;20382;-64
2022/04/04 06:34:38;;;;;;;10.65;7.07;;;2.50;64.30;;;-0.98;78.66;96224.50;4931518;28;20914;-63
2022/04/04 06:37:07;;;;;;;9.10;6.90;;;2.60;63.60;;;-0.88;78.78;96223.81;4959790;28;20399;-66
2022/04/04 06:39:33;;;;;;;10.27;7.72;;;2.70;63.90;;;-0.76;78.69;96217.72;4916689;28;20353;-66
2022/04/04 06:41:59;;;;;;;11.60;7.32;;;2.90;63.20;;;-0.66;78.32;96219.50;4963803;28;20310;-67
2022/04/04 06:44:26;;;;;;;10.15;7.13;;;3.00;63.00;;;-0.58;78.45;96220.66;4914646;28;20421;-64
2022/04/04 06:46:52;;;;;;;9.45;6.68;;;2.90;63.30;;;-0.52;77.32;96220.19;4949017;28;21011;-68
2022/04/04 06:49:19;;;;;;;11.60;6.70;;;2.90;62.70;;;-0.41;77.28;96223.59;4925132;28;20468;-65
2022/04/04 06:51:45;;;;;;;12.13;7.70;;;3.00;62.90;;;-0.31;77.28;96224.50;4935997;28;20357;-66
2022/04/04 06:54:11;;;;;;;9.15;6.15;;;3.00;62.30;;;-0.22;76.70;96222.16;4972559;28;20268;-65
2022/04/04 06:56:37;;;;;;;10.88;6.82;;;3.00;61.70;;;-0.13;75.62;96222.25;4941083;28;20209;-64
2022/04/04 06:59:03;;;;;;;9.77;6.07;;;3.20;61.10;;;-0.02;75.95;96219.63;4937542;28;20314;-64
2022/04/04 07:01:31;;;;;;;8.55;6.75;;;3.40;61.10;;;0.12;76.00;96217.75;4951731;28;20427;-64
2022/04/04 07:03:58;;;;;;;10.73;6.47;;;3.70;60.10;;;0.27;74.61;96224.28;4948979;28;20439;-63
2022/04/04 07:06:25;;;;;;;9.68;6.78;;;4.00;58.00;;;0.39;74.71;96212.94;4961139;28;20582;-64
2022/04/04 07:08:52;;;;;;;8.82;5.78;;;4.30;57.50;;;0.56;74.08;96207.22;4977125;28;20319;-66
2022/04/04 07:11:18;;;;;;;13.32;6.38;;;4.50;55.80;;;0.76;73.32;96199.59;4928244;28;20631;-64
2022/04/04 07:13:47;;;;;;;10.18;6.15;;;4.90;55.60;;;0.97;72.97;96202.19;4919297;28;20562;-65
2022/04/04 07:16:13;;;;;;;7.28;5.22;;;5.10;52.90;;;1.12;72.55;96196.53;4946913;28;20488;-64
2022/04/04 07:18:40;;;;;;;8.93;6.07;;;5.20;52.30;;;1.34;72.22;96199.91;4961237;28;20349;-64
2022/04/04 07:21:06;;;;;;;8.43;5.85;;;5.70;52.20;;;1.56;71.96;96193.72;4938090;28;20388;-64
2022/04/04 07:23:32;;;;;;;8.25;5.80;;;5.90;51.20;;;1.80;70.86;96182.06;4922933;28;20364;-67
2022/04/04 07:25:58;;;;;;;7.60;5.18;;;6.30;50.80;;;2.05;70.83;96185.16;4935419;28;20304;-63
2022/04/04 07:28:24;;;;;;;6.32;4.55;;;6.40;50.30;;;2.26;69.53;96178.03;4955784;28;20360;-64
2022/04/04 07:30:52;;;;;;;7.00;4.50;;;6.60;47.50;;;2.46;68.54;96171.91;4955927;28;20484;-66
2022/04/04 07:33:19;;;;;;;8.93;4.57;;;6.70;47.30;;;2.69;68.03;96175.03;4943117;28;20349;-63
2022/04/04 07:35:46;;;;;;;6.07;3.88;;;6.90;45.60;;;2.89;65.84;96173.22;4917076;28;20479;-64
2022/04/04 07:38:12;;;;;;;6.00;3.80;;;6.90;43.80;;;3.09;66.16;96179.22;4934853;28;20348;-64
2022/04/04 07:40:38;;;;;;;4.45;3.33;;;7.20;44.40;;;3.34;64.76;96180.38;4944739;28;20356;-64
2022/04/04 07:43:04;;;;;;;5.10;3.47;;;7.50;42.20;;;3.57;63.57;96183.41;4941652;28;20385;-64
2022/04/04 07:45:31;;;;;;;5.03;3.75;;;7.60;40.60;;;3.70;62.44;96181.31;4934906;28;20480;-64
2022/04/04 07:47:58;;;;;;;5.10;3.92;;;7.80;41.40;;;3.89;61.75;96176.03;4922902;28;20352;-66
2022/04/04 07:50:24;;;;;;;7.63;3.42;;;8.10;41.20;;;4.13;62.07;96178.06;4919295;28;20261;-65
2022/04/04 07:52:50;;;;;;;4.55;3.50;;;8.60;40.60;;;4.42;60.63;96177.03;4957703;27;20734;-66
2022/04/04 07:55:19;;;;;;;3.90;3.15;;;9.00;39.00;;;4.74;56.73;96168.66;4949542;27;20351;-66
2022/04/04 07:57:46;;;;;;;4.50;3.25;;;9.40;37.70;;;5.04;58.11;96170.88;4938981;28;20356;-64
2022/04/04 08:00:17;;;;;;;4.60;3.15;;;9.90;36.30;;;5.35;56.63;96159.97;4937646;28;20688;-66
2022/04/04 08:02:45;;;;;;;7.00;3.08;;;10.30;36.30;;;5.63;56.51;96163.19;4925384;27;20264;-67
2022/04/04 08:05:11;;;;;;;4.40;2.97;;;10.40;34.60;;;5.85;55.27;96152.19;4940167;28;20815;-67
2022/04/04 08:07:40;;;;;;;3.75;2.90;;;10.50;34.60;;;6.12;53.60;96151.97;4955192;28;20356;-67
2022/04/04 08:10:07;;;;;;;3.65;3.00;;;10.80;32.70;;;6.40;51.35;96147.28;4928483;27;20345;-65
2022/04/04 08:12:34;;;;;;;5.20;3.05;;;11.10;31.60;;;6.63;50.27;96144.03;4970021;28;20761;-64
2022/04/04 08:15:00;;;;;;;5.47;2.95;;;11.40;31.00;;;6.85;49.42;96138.16;4938727;28;20709;-64
2022/04/04 08:17:26;;;;;;;3.53;2.72;;;11.50;31.30;;;7.08;48.34;96140.91;5027927;22;20344;-64
2022/04/04 08:19:52;;;;;;;4.55;2.85;;;11.60;30.30;;;7.33;46.87;96136.44;4937583;28;20475;-65
2022/04/04 08:22:19;;;;;;;3.33;2.03;;;11.60;28.70;;;7.57;45.26;96140.78;4895778;28;20391;-66
2022/04/04 08:24:45;;;;;;;3.83;2.35;;;12.00;27.30;;;7.79;44.15;96129.56;4899748;28;20423;-65
2022/04/04 08:27:11;;;;;;;5.30;2.83;;;12.10;28.20;;;7.98;44.66;96134.38;4903461;28;20695;-65
2022/04/04 08:29:37;;;;;;;3.35;2.63;;;12.00;29.30;;;8.14;43.52;96133.44;4882053;28;20688;-65
2022/04/04 08:32:05;;;;;;;3.83;2.50;;;12.40;30.20;;;8.39;44.32;96134.16;4931122;23;20513;-66
2022/04/04 08:34:38;;;;;;;3.85;2.38;;;12.60;29.40;;;8.65;40.26;96118.06;4878946;28;20516;-67
2022/04/04 08:37:05;;;;;;;3.20;1.90;;;12.70;28.60;;;8.77;41.75;96118.47;4900679;28;20494;-68
2022/04/04 08:39:31;;;;;;;3.58;2.42;;;12.80;28.70;;;8.90;42.43;96119.50;4900711;28;20421;-68
2022/04/04 08:41:58;;;;;;;4.75;2.67;;;12.60;28.10;;;8.95;41.22;96113.72;4942687;23;20354;-68
2022/04/04 08:44:24;;;;;;;4.03;2.42;;;12.60;28.70;;;9.03;41.92;96111.00;4925670;28;20298;-70
2022/04/04 08:46:51;;;;;;;3.67;2.35;;;12.80;29.50;;;9.18;41.04;96109.22;4892229;28;20434;-67
2022/04/04 08:49:17;;;;;;;3.42;2.67;;;13.00;29.80;;;9.37;40.64;96109.69;4912466;28;20381;-68
2022/04/04 08:51:43;;;;;;;3.25;2.58;;;13.30;28.60;;;9.52;40.27;96100.00;4909330;28;20358;-68
2022/04/04 08:54:09;;;;;;;4.55;2.55;;;13.40;27.90;;;9.63;40.65;96107.41;4940143;22;20948;-69
2022/04/04 08:56:36;;;;;;;3.53;2.20;;;13.50;28.10;;;9.77;40.90;96101.34;4890422;28;20677;-68
2022/04/04 08:59:02;;;;;;;3.13;2.33;;;13.50;27.70;;;9.88;39.24;96101.84;4895888;28;20196;-67
2022/04/04 09:01:28;;;;;;;3.25;2.40;;;13.40;27.50;;;10.01;39.87;96097.56;4888221;28;20435;-68
2022/04/04 09:04:01;;;;;;;3.58;2.30;;;13.80;27.50;;;10.17;36.13;96093.88;4901651;28;20829;-68
2022/04/04 09:06:30;;;;;;;5.30;2.67;;;13.60;27.70;;;10.29;38.55;96096.88;4919895;28;20340;-66
2022/04/04 09:08:57;;;;;;;5.57;2.50;;;13.90;27.50;;;10.39;38.79;96089.47;4873474;28;20296;-68
2022/04/04 09:11:23;;;;;;;3.70;2.17;;;14.00;26.60;;;10.52;37.40;96076.47;4904420;28;20473;-69
2022/04/04 09:14:04;;;;;;;2.88;2.30;;;13.80;25.60;;;10.38;34.59;96077.34;4862767;28;20347;-66
2022/04/04 09:16:30;;;;;;;4.82;2.53;;;13.10;26.00;;;10.42;38.17;96074.16;4886220;28;20375;-65
2022/04/04 09:18:56;;;;;;;3.38;2.53;;;13.60;26.70;;;10.56;37.75;96074.28;4873553;28;20402;-65
2022/04/04 09:21:22;;;;;;;4.18;2.75;;;13.60;26.60;;;10.68;36.35;96067.50;4906003;28;20328;-69
2022/04/04 09:23:50;;;;;;;5.88;2.60;;;13.60;26.30;;;10.75;36.42;96068.38;4921489;28;20266;-69
2022/04/04 09:26:36;;;;;;;4.63;2.72;;;13.80;26.00;;;10.79;34.07;96056.44;4948001;28;20852;-67
2022/04/04 09:29:09;;;;;;;4.18;2.42;;;13.30;25.10;;;10.64;34.47;96067.06;4924159;28;20382;-65
2022/04/04 09:31:35;;;;;;;4.47;2.60;;;13.20;26.60;;;10.64;35.52;96055.75;4903016;28;20315;-68
2022/04/04 09:34:04;;;;;;;4.07;2.90;;;13.60;26.60;;;10.72;35.62;96053.78;4903472;28;20368;-67
2022/04/04 09:36:31;;;;;;;4.03;3.00;;;13.50;25.70;;;10.85;35.42;96053.03;4871966;28;20189;-68
2022/04/04 09:39:08;;;;;;;3.17;2.80;;;13.70;27.20;;;11.01;34.22;96046.69;4890822;28;20429;-66
2022/04/04 09:41:34;;;;;;;3.55;2.80;;;13.90;27.50;;;11.22;35.26;96043.97;4902518;28;20296;-68
2022/04/04 09:44:05;;;;;;;4.80;2.60;;;14.10;27.80;;;11.38;34.57;96037.59;4881415;28;20502;-68
2022/04/04 09:46:35;;;;;;;;;;;14.40;28.10;;;11.63;33.79;96028.19;4873065;28;20422;-68
2022/04/04 09:49:20;;;;;;;4.97;3.20;;;14.80;27.40;;;11.86;33.82;96027.06;4907670;28;20095;-69
2022/04/04 09:51:51;;;;;;;4.15;2.72;;;14.70;26.70;;;11.99;35.41;96023.63;4880285;28;20363;-67
2022/04/04 09:54:26;;;;;;;;;;;15.10;27.90;;;12.24;33.99;96016.81;4897166;28;20307;-68
2022/04/04 09:57:09;;;;;;;4.35;3.45;;;15.40;27.20;;;12.35;33.98;96013.56;4893410;28;20289;-67
2022/04/04 09:59:37;;;;;;;6.70;3.60;;;15.30;25.90;;;12.37;35.12;96016.00;4888606;28;20208;-69
2022/04/04 10:02:03;;;;;;;5.25;4.13;;;15.30;25.70;;;12.48;35.13;96007.50;4874389;28;20475;-68
2022/04/04 10:04:34;;;;;;;6.03;3.50;;;15.90;26.40;;;12.69;34.80;96009.94;4888868;28;20310;-66
2022/04/04 10:07:06;;;;;;;3.92;3.13;;;15.90;26.60;;;12.93;34.06;95994.47;4887099;28;20379;-67
2022/04/04 10:09:33;;;;;;;5.18;3.72;;;16.40;25.00;;;13.07;36.24;95996.84;4894563;28;20448;-67
2022/04/04 10:11:59;;;;;;;4.75;3.50;;;16.10;24.90;;;13.36;36.06;95995.59;4905280;28;20378;-65